Sausalito, CA (94965)

11:04 PM PDT on August 21, 2014 (GMT -0700)
Prospect Ave. Sausalito | Change Station
CLOSE
Current Station
Personal Weather Station
Location: Sausalito, CA
Elevation: 518 ft
Nearby Weather Stations

Elev 518 ft 37.85 °N, 122.49 °W | Updated 9 minutes ago

Partly Cloudy
Partly Cloudy
58.2 °F
Feels Like 58.2 °F
N
0.0
Wind Variable Wind from SSE
Gusts 0.0 mph

Today
High -- | Low -- °F
--% Chance of Precip.
Yesterday
High -- | Low -- °F
Precip. -- in
6:30 AM 7:55 PM
Waning Crescent, 10% visible
Pressure 29.93 in
Visibility 10.0 miles
Clouds Few 900 ft
Dew Point 58 °F
Humidity 98%
Rainfall 0.00 in
Snow Depth Not available.
UV 0 out of 12
Pollen 5.90 out of 12
Air Quality Not available.
Flu Activity Not available.
METAR KSFO 220556Z 30008KT 10SM FEW009 17/15 A2993 RMK AO2 SLP135 T01670150 10222 20167 50004 $

More Conditions Fewer Conditions

Pressure 29.93 in
Visibility 10.0 miles
Clouds Few 900 ft
Dew Point 58 °F
Humidity 98%
Rainfall 0.00 in
Snow Depth Not available.
UV 0 out of 12
Pollen 5.90 out of 12
Air Quality Not available.
Flu Activity Not available.
METAR KSFO 220556Z 30008KT 10SM FEW009 17/15 A2993 RMK AO2 SLP135 T01670150 10222 20167 50004 $

More Conditions Fewer Conditions

10-Day Weather Forecast

Almanac

Astronomy

Aug. 21, 2014 Rise Set
Actual Time 6:30 AM PDT 7:55 PM PDT
Civil Twilight 6:03 AM PDT 8:22 PM PDT
Nautical Twilight 5:30 AM PDT 8:55 PM PDT
Astronomical Twilight 4:55 AM PDT 9:30 PM PDT
Moon 3:07 AM PDT (8/21) 5:26 PM PDT (8/21)
Length of Visible Light 14h 19m
Length of Day
13h 24m
Tomorrow will be 2m 13s shorter.
Waning Crescent, 10% of the Moon is Illuminated
Aug 22
Waning Crescent
Aug 25
New
Sep 2
First Quarter
Sep 8
Full
Sep 15
Last Quarter

Yesterday's Extremes

State Highs State Lows

Community

WunderPhotos

Upload Photos

1,746,131 photos uploaded!

Nearby

Snow Depth

Station Depth Elevation
Echo Peak 1 in 7800 ft
Blue Lakes 0 in 8000 ft
Forestdale Creek 0 in 8029 ft
Fallen Leaf 0 in 6300 ft
Hagan's Meadow 0 in 8000 ft

Earthquake Activity

City Distance Mag. Time & Date
Berkeley, California 15 miles 2.6 7:41 PM PDT
2014-08-16
King City, California 141 miles 2.7 10:26 PM PDT
2014-08-15
Minimum magnitude displayed is 2.5.

Coastal Water Temperatures

Place Temperature
San Francisco, CA 64.0 °F
Richmond, CA 66.9 °F
Port Chicago, CA 71.1 °F

Nearby Weather Stations